Time;durP1;ratioP1;P1;durP2;ratioP2;P2;SDS_P1;SDS_P2;PMS_P1;PMS_P2;Temp;Humidity;BMP_temperature;BMP_pressure;BME280_temperature;BME280_humidity;BME280_pressure;Samples;Min_cycle;Max_cycle;Signal;HPM_P1;HPM_P2
2021/12/01 00:01:33;;;;;;;44.40;14.57;;;8.40;99.90;;;;;;4951999;29;20058;-74
2021/12/01 00:03:59;;;;;;;39.08;14.15;;;8.40;99.90;;;;;;4937549;28;20051;-74
2021/12/01 00:06:24;;;;;;;38.10;13.40;;;8.40;99.90;;;;;;4957132;28;20090;-74
2021/12/01 00:08:50;;;;;;;41.83;13.75;;;8.50;99.90;;;;;;4956814;28;20042;-74
2021/12/01 00:11:15;;;;;;;41.83;15.15;;;8.50;99.90;;;;;;4954976;29;20146;-74
2021/12/01 00:13:41;;;;;;;36.63;13.98;;;8.50;99.90;;;;;;4938132;29;20059;-74
2021/12/01 00:16:08;;;;;;;36.03;14.77;;;8.60;99.90;;;;;;4938704;28;20039;-74
2021/12/01 00:18:34;;;;;;;40.90;16.60;;;8.60;99.90;;;;;;4954824;29;20050;-74
2021/12/01 00:20:59;;;;;;;32.53;13.60;;;8.60;99.90;;;;;;4959007;28;20097;-74
2021/12/01 00:23:26;;;;;;;46.15;18.20;;;8.70;99.90;;;;;;4940219;28;20398;-74
2021/12/01 00:25:52;;;;;;;37.60;17.63;;;8.70;99.90;;;;;;4973118;28;20750;-74
2021/12/01 00:28:18;;;;;;;46.50;19.92;;;8.70;99.90;;;;;;4957244;28;20050;-74
2021/12/01 00:30:44;;;;;;;45.00;19.60;;;8.80;99.90;;;;;;4965441;28;20487;-74
2021/12/01 00:33:12;;;;;;;49.38;22.60;;;8.80;99.90;;;;;;4937384;29;20057;-74
2021/12/01 00:35:38;;;;;;;49.92;22.10;;;8.80;99.90;;;;;;4937057;28;20093;-73
2021/12/01 00:38:04;;;;;;;56.05;24.40;;;8.80;99.90;;;;;;4954582;28;20046;-74
2021/12/01 00:40:31;;;;;;;53.30;24.58;;;8.80;99.90;;;;;;4937129;29;20109;-74
2021/12/01 00:42:57;;;;;;;53.78;24.48;;;8.80;99.90;;;;;;4939597;29;20047;-74
2021/12/01 00:45:23;;;;;;;46.40;24.15;;;8.90;99.90;;;;;;4937249;28;20079;-74
2021/12/01 00:47:51;;;;;;;47.88;23.48;;;8.90;99.90;;;;;;4938089;29;20403;-74
2021/12/01 00:50:25;;;;;;;46.78;23.92;;;8.90;99.90;;;;;;4955232;28;20043;-74
2021/12/01 00:52:53;;;;;;;56.00;25.63;;;8.90;99.90;;;;;;4937233;29;20134;-74
2021/12/01 00:55:20;;;;;;;46.88;24.27;;;9.00;99.90;;;;;;4937383;29;20083;-73
2021/12/01 00:57:46;;;;;;;43.75;20.55;;;9.00;99.90;;;;;;4936943;29;20086;-74
2021/12/01 01:00:13;;;;;;;45.28;22.05;;;9.00;99.90;;;;;;4937120;29;20058;-74
2021/12/01 01:02:39;;;;;;;48.00;25.02;;;9.00;99.90;;;;;;4954173;28;20039;-73
2021/12/01 01:05:06;;;;;;;44.30;23.25;;;9.00;99.90;;;;;;4960549;28;20043;-74
2021/12/01 01:07:32;;;;;;;44.65;22.08;;;9.00;99.90;;;;;;4943549;28;20059;-74
2021/12/01 01:10:04;;;;;;;39.78;22.08;;;9.00;99.90;;;;;;4936961;28;20181;-73
2021/12/01 01:18:06;;;;;;;36.15;19.70;;;9.00;99.90;;;;;;4937084;29;20059;-73
2021/12/01 01:20:32;;;;;;;38.33;19.38;;;9.00;99.90;;;;;;4957364;28;20482;-74
2021/12/01 01:22:58;;;;;;;33.60;20.35;;;9.00;99.90;;;;;;4950074;29;20062;-74
2021/12/01 01:25:24;;;;;;;35.88;19.58;;;9.10;99.90;;;;;;4955314;28;20047;-74
2021/12/01 01:27:49;;;;;;;47.13;19.05;;;9.10;99.90;;;;;;4937285;29;20051;-74
2021/12/01 01:30:15;;;;;;;31.85;18.67;;;9.10;99.90;;;;;;4936741;29;20051;-74
2021/12/01 01:32:41;;;;;;;33.20;18.50;;;9.10;99.90;;;;;;4939595;29;20043;-74
2021/12/01 01:35:07;;;;;;;35.28;17.55;;;9.10;99.90;;;;;;4936362;29;20047;-74
2021/12/01 01:37:33;;;;;;;35.55;16.83;;;9.10;99.90;;;;;;4939134;28;20043;-74
2021/12/01 01:39:58;;;;;;;31.02;16.77;;;9.10;99.90;;;;;;4953837;28;20043;-74
2021/12/01 01:42:24;;;;;;;28.98;15.23;;;9.20;99.90;;;;;;4936228;28;20047;-74
2021/12/01 01:44:50;;;;;;;31.10;15.43;;;9.10;99.90;;;;;;4940752;28;20051;-74
2021/12/01 01:47:17;;;;;;;33.53;14.85;;;9.10;99.90;;;;;;4947127;29;20043;-74
2021/12/01 01:52:09;;;;;;;26.30;12.95;;;9.20;99.90;;;;;;4955889;28;20054;-74
2021/12/01 01:54:35;;;;;;;24.67;12.25;;;9.20;99.90;;;;;;4937548;29;20136;-74
2021/12/01 01:57:00;;;;;;;21.40;10.13;;;9.20;99.90;;;;;;4953103;28;20066;-74
2021/12/01 01:59:26;;;;;;;20.20;9.40;;;9.20;99.90;;;;;;4935995;28;20145;-74
2021/12/01 02:01:56;;;;;;;15.20;9.30;;;9.20;99.90;;;;;;4936944;29;20175;-74
2021/12/01 02:04:22;;;;;;;13.80;7.70;;;9.20;99.90;;;;;;4953044;28;20055;-74
2021/12/01 02:06:49;;;;;;;13.73;6.57;;;9.20;99.90;;;;;;4953632;28;20047;-74
2021/12/01 02:09:19;;;;;;;11.15;4.38;;;9.20;99.90;;;;;;4936137;28;20059;-74
2021/12/01 02:11:45;;;;;;;7.30;3.40;;;9.20;99.90;;;;;;4952522;28;20057;-74
2021/12/01 02:14:10;;;;;;;6.43;3.45;;;9.20;99.90;;;;;;4950294;28;20419;-74
2021/12/01 02:16:37;;;;;;;6.68;2.45;;;9.20;99.90;;;;;;4936142;29;20050;-74
2021/12/01 02:19:03;;;;;;;10.27;3.70;;;9.20;99.90;;;;;;4953122;28;20054;-74
2021/12/01 02:21:30;;;;;;;9.13;4.32;;;9.30;99.90;;;;;;4945502;29;20043;-74
2021/12/01 02:23:59;;;;;;;12.18;5.63;;;9.30;99.90;;;;;;4944992;29;20145;-74
2021/12/01 02:26:27;;;;;;;9.25;4.95;;;9.20;99.90;;;;;;4951365;28;20043;-74
2021/12/01 02:28:58;;;;;;;12.23;6.07;;;9.40;99.90;;;;;;4953376;28;20158;-74
2021/12/01 02:31:25;;;;;;;11.32;6.28;;;9.20;99.90;;;;;;4935182;29;20559;-74
2021/12/01 02:33:52;;;;;;;10.93;5.63;;;9.30;99.90;;;;;;4935797;29;20078;-74
2021/12/01 02:36:18;;;;;;;12.50;5.95;;;9.30;99.90;;;;;;4935666;28;20121;-74
2021/12/01 02:38:46;;;;;;;8.55;4.85;;;9.30;99.90;;;;;;4937997;28;20125;-74
2021/12/01 02:41:12;;;;;;;8.40;4.40;;;9.20;99.90;;;;;;4953241;29;20253;-74
2021/12/01 02:43:39;;;;;;;8.43;4.13;;;9.20;99.90;;;;;;4942101;28;20053;-74
2021/12/01 02:46:05;;;;;;;9.15;4.55;;;9.20;99.90;;;;;;4935479;29;20046;-74
2021/12/01 02:48:31;;;;;;;6.82;3.58;;;9.20;99.90;;;;;;4935934;28;20055;-74
2021/12/01 02:50:58;;;;;;;6.57;3.40;;;9.20;99.90;;;;;;4953639;28;20150;-74
2021/12/01 02:53:24;;;;;;;6.78;3.47;;;9.30;99.90;;;;;;4934784;28;20459;-74
2021/12/01 02:55:56;;;;;;;4.70;2.60;;;9.30;99.90;;;;;;4939288;28;20058;-74
2021/12/01 02:58:23;;;;;;;6.20;2.80;;;9.30;99.90;;;;;;4939855;28;20150;-74
2021/12/01 03:00:51;;;;;;;7.47;3.13;;;9.30;99.90;;;;;;4935006;28;20051;-74
2021/12/01 03:03:17;;;;;;;4.95;2.15;;;9.30;99.90;;;;;;4942676;28;20450;-74
2021/12/01 03:05:46;;;;;;;4.43;1.80;;;9.30;99.90;;;;;;4970286;28;20074;-74
2021/12/01 03:08:14;;;;;;;5.18;2.10;;;9.30;99.90;;;;;;4952331;29;20170;-74
2021/12/01 03:10:40;;;;;;;3.55;1.42;;;9.30;99.90;;;;;;4952718;28;20043;-74
2021/12/01 03:13:06;;;;;;;3.90;1.83;;;9.30;99.90;;;;;;4951152;28;20071;-73
2021/12/01 03:15:32;;;;;;;4.90;1.60;;;9.30;99.90;;;;;;4971524;28;20881;-74
2021/12/01 03:18:00;;;;;;;7.00;1.73;;;9.30;99.90;;;;;;4954618;28;20031;-74
2021/12/01 03:20:25;;;;;;;5.53;2.30;;;9.30;99.90;;;;;;4951954;29;20078;-74
2021/12/01 03:22:51;;;;;;;6.28;1.85;;;9.30;99.90;;;;;;4952815;28;20388;-74
2021/12/01 03:25:17;;;;;;;8.30;1.88;;;9.40;99.90;;;;;;4935712;29;20061;-74
2021/12/01 03:27:43;;;;;;;9.25;2.15;;;9.40;99.90;;;;;;4934502;29;20074;-74
2021/12/01 03:30:11;;;;;;;5.53;2.08;;;9.40;99.90;;;;;;4955853;28;20035;-74
2021/12/01 03:32:38;;;;;;;8.68;2.65;;;9.30;99.90;;;;;;4971345;28;20049;-74
2021/12/01 03:35:09;;;;;;;12.30;2.45;;;9.30;99.90;;;;;;4934894;29;20491;-74
2021/12/01 03:37:35;;;;;;;6.45;1.92;;;9.30;99.90;;;;;;4954059;28;20466;-74
2021/12/01 03:40:01;;;;;;;6.57;1.80;;;9.40;99.90;;;;;;4939341;28;20058;-74
2021/12/01 03:42:27;;;;;;;3.20;1.33;;;9.40;99.90;;;;;;4938230;29;20047;-74
2021/12/01 03:44:56;;;;;;;4.68;1.42;;;9.40;99.90;;;;;;4956060;28;20098;-73
2021/12/01 03:47:23;;;;;;;7.57;1.25;;;9.40;99.90;;;;;;4938697;29;20047;-74
2021/12/01 03:49:49;;;;;;;8.27;1.00;;;9.40;99.90;;;;;;4955584;28;20039;-74
2021/12/01 03:52:16;;;;;;;5.25;1.25;;;9.40;99.90;;;;;;4938672;29;20510;-74
2021/12/01 03:54:43;;;;;;;10.65;1.05;;;9.40;99.90;;;;;;4955473;28;20919;-74
2021/12/01 03:57:09;;;;;;;6.40;1.30;;;9.40;99.90;;;;;;4955528;29;20057;-74
2021/12/01 03:59:35;;;;;;;7.93;1.52;;;9.40;99.90;;;;;;4938552;28;20051;-74
2021/12/01 04:02:00;;;;;;;9.02;1.80;;;9.40;99.90;;;;;;4956222;29;20039;-74
2021/12/01 04:04:26;;;;;;;9.57;1.60;;;9.40;99.90;;;;;;4968273;28;20049;-74
2021/12/01 04:06:51;;;;;;;10.25;1.90;;;9.40;99.90;;;;;;4954256;29;20534;-74
2021/12/01 04:09:17;;;;;;;13.25;1.98;;;9.40;99.90;;;;;;4952296;28;20054;-74
2021/12/01 04:11:43;;;;;;;6.82;1.90;;;9.40;99.90;;;;;;4941460;29;20415;-74
2021/12/01 04:14:08;;;;;;;11.85;1.77;;;9.40;99.90;;;;;;4941909;29;20059;-74
2021/12/01 04:16:34;;;;;;;8.85;2.22;;;9.40;99.90;;;;;;4947341;28;20058;-74
2021/12/01 04:19:01;;;;;;;8.32;2.10;;;9.60;99.90;;;;;;4952856;29;20098;-74
2021/12/01 04:21:27;;;;;;;11.63;2.80;;;9.40;99.90;;;;;;4955433;29;20051;-74
2021/12/01 04:23:54;;;;;;;8.52;2.55;;;9.40;99.90;;;;;;4940773;28;20039;-74
2021/12/01 04:26:23;;;;;;;8.18;2.33;;;9.40;99.90;;;;;;4948211;29;20047;-74
2021/12/01 04:28:49;;;;;;;9.90;2.40;;;9.40;99.90;;;;;;4955570;28;20043;-74
2021/12/01 04:31:15;;;;;;;6.88;2.40;;;9.40;99.90;;;;;;4953796;29;20047;-74
2021/12/01 04:33:41;;;;;;;9.68;2.33;;;9.40;99.90;;;;;;4953733;28;20061;-74
2021/12/01 04:36:08;;;;;;;5.93;1.67;;;9.40;99.90;;;;;;4955980;28;20464;-74
2021/12/01 04:38:34;;;;;;;3.83;2.00;;;9.40;99.90;;;;;;4952342;28;20507;-74
2021/12/01 04:41:00;;;;;;;6.45;2.10;;;9.40;99.90;;;;;;4954831;28;20078;-74
2021/12/01 04:43:25;;;;;;;6.43;2.00;;;9.40;99.90;;;;;;4972977;28;20046;-74
2021/12/01 04:45:58;;;;;;;4.13;1.98;;;9.40;99.90;;;;;;4937980;28;20435;-74
2021/12/01 04:48:24;;;;;;;6.25;2.00;;;9.40;99.90;;;;;;4937621;29;20043;-74
2021/12/01 04:50:50;;;;;;;5.72;2.00;;;9.40;99.90;;;;;;4956653;28;20451;-74
2021/12/01 04:53:15;;;;;;;5.63;2.70;;;9.40;99.90;;;;;;4952420;28;20039;-74
2021/12/01 04:55:41;;;;;;;7.30;2.60;;;9.40;99.90;;;;;;4937312;29;20067;-74
2021/12/01 04:58:07;;;;;;;7.00;3.13;;;9.40;99.90;;;;;;4938213;29;20555;-73
2021/12/01 05:00:35;;;;;;;6.65;2.78;;;9.40;99.90;;;;;;4936775;28;20051;-74
2021/12/01 05:03:01;;;;;;;5.13;2.75;;;9.40;99.90;;;;;;4937847;29;20091;-74
2021/12/01 05:05:26;;;;;;;6.85;2.45;;;9.40;99.90;;;;;;4939396;28;20055;-74
2021/12/01 05:07:53;;;;;;;5.28;2.67;;;9.40;99.90;;;;;;4956074;28;20050;-74
2021/12/01 05:10:19;;;;;;;4.30;2.03;;;9.40;99.90;;;;;;4952683;29;20059;-74
2021/12/01 05:12:44;;;;;;;4.85;2.00;;;9.40;99.90;;;;;;4936658;29;20055;-74
2021/12/01 05:15:10;;;;;;;4.30;2.03;;;9.40;99.90;;;;;;4954856;28;20138;-74
2021/12/01 05:17:36;;;;;;;4.57;1.52;;;9.40;99.90;;;;;;4969004;28;20051;-74
2021/12/01 05:20:04;;;;;;;4.20;1.70;;;9.30;99.90;;;;;;4937002;29;20439;-74
2021/12/01 05:22:31;;;;;;;6.43;2.00;;;9.40;99.90;;;;;;4936580;29;20061;-74
2021/12/01 05:24:56;;;;;;;2.92;1.20;;;9.30;99.90;;;;;;4970542;28;20045;-74
2021/12/01 05:27:23;;;;;;;3.88;1.15;;;9.30;99.90;;;;;;4969677;28;20034;-73
2021/12/01 05:29:48;;;;;;;3.47;1.10;;;9.30;99.90;;;;;;4945417;28;20054;-74
2021/12/01 05:32:15;;;;;;;3.63;1.17;;;9.50;99.90;;;;;;4956772;28;20068;-73
2021/12/01 05:34:41;;;;;;;3.85;1.58;;;9.30;99.90;;;;;;4938001;28;20550;-74
2021/12/01 05:37:07;;;;;;;3.78;1.42;;;9.30;99.90;;;;;;4951336;28;20129;-74
2021/12/01 05:39:33;;;;;;;2.63;1.20;;;9.30;99.90;;;;;;4953501;29;20471;-74
2021/12/01 05:41:59;;;;;;;3.10;1.20;;;9.30;99.90;;;;;;4937672;28;20043;-74
2021/12/01 05:44:25;;;;;;;3.38;1.50;;;9.30;99.90;;;;;;4958398;28;20388;-74
2021/12/01 05:46:51;;;;;;;4.57;1.63;;;9.30;99.90;;;;;;4953810;28;20043;-74
2021/12/01 05:49:17;;;;;;;4.35;1.60;;;9.20;99.90;;;;;;4939980;29;20102;-74
2021/12/01 05:51:43;;;;;;;2.90;1.35;;;9.30;99.90;;;;;;4952907;28;20051;-74
2021/12/01 05:54:09;;;;;;;3.88;1.85;;;9.30;99.90;;;;;;4953663;28;20043;-74
2021/12/01 05:56:35;;;;;;;4.53;2.13;;;9.20;99.90;;;;;;4951993;29;20047;-73
2021/12/01 05:59:01;;;;;;;3.38;1.70;;;9.20;99.90;;;;;;4939782;29;20078;-74
2021/12/01 06:01:26;;;;;;;4.43;2.13;;;9.20;99.90;;;;;;4962144;28;20047;-73
2021/12/01 06:03:52;;;;;;;4.38;2.20;;;9.20;99.90;;;;;;4942472;28;20075;-73
2021/12/01 06:06:17;;;;;;;4.35;2.38;;;9.10;99.90;;;;;;4950260;29;20372;-73
2021/12/01 06:08:43;;;;;;;4.20;2.15;;;9.10;99.90;;;;;;4962047;28;20539;-73
2021/12/01 06:11:09;;;;;;;4.82;2.20;;;9.10;99.90;;;;;;4962982;28;20070;-74
2021/12/01 06:13:35;;;;;;;3.38;1.90;;;9.10;99.90;;;;;;4960699;28;20039;-74
2021/12/01 06:16:01;;;;;;;4.80;2.40;;;9.10;99.90;;;;;;4950232;28;20089;-73
2021/12/01 06:18:29;;;;;;;3.88;2.00;;;9.10;99.90;;;;;;4939338;28;20043;-74
2021/12/01 06:20:55;;;;;;;4.95;2.20;;;9.10;99.90;;;;;;4958114;28;20047;-74
2021/12/01 06:23:21;;;;;;;4.70;2.72;;;9.10;99.90;;;;;;4936276;28;20047;-74
2021/12/01 06:25:47;;;;;;;4.30;2.33;;;9.10;99.90;;;;;;4971367;28;20042;-74
2021/12/01 06:28:13;;;;;;;4.30;2.42;;;9.10;99.90;;;;;;4938837;29;20054;-74
2021/12/01 06:30:39;;;;;;;3.83;2.08;;;9.10;99.90;;;;;;4941616;29;20035;-74
2021/12/01 06:33:04;;;;;;;3.83;2.05;;;9.00;99.90;;;;;;4935738;29;20043;-74
2021/12/01 06:35:30;;;;;;;3.35;1.70;;;9.10;99.90;;;;;;4952768;28;20047;-74
2021/12/01 06:37:56;;;;;;;4.75;2.00;;;9.00;99.90;;;;;;4937630;29;20043;-74
2021/12/01 06:40:23;;;;;;;3.90;1.90;;;9.00;99.90;;;;;;4955864;28;20121;-74
2021/12/01 06:42:49;;;;;;;4.07;1.98;;;9.00;99.90;;;;;;4943438;29;20043;-74
2021/12/01 06:45:16;;;;;;;3.70;1.85;;;8.90;99.90;;;;;;4936181;28;20106;-74
2021/12/01 06:47:43;;;;;;;2.97;1.52;;;8.90;99.90;;;;;;4971193;28;20359;-73
2021/12/01 06:50:10;;;;;;;3.35;1.70;;;8.90;99.90;;;;;;4968582;28;20058;-73
2021/12/01 06:52:38;;;;;;;4.60;1.65;;;8.90;99.90;;;;;;4948739;29;20427;-74
2021/12/01 06:55:07;;;;;;;3.35;1.70;;;8.90;99.90;;;;;;4952828;28;20062;-74
2021/12/01 06:57:33;;;;;;;4.07;1.48;;;8.90;99.90;;;;;;4950264;28;20058;-73
2021/12/01 06:59:59;;;;;;;3.10;1.40;;;8.90;99.90;;;;;;4936101;28;20042;-73
2021/12/01 07:02:25;;;;;;;3.20;1.38;;;8.90;99.90;;;;;;4967270;28;20129;-74
2021/12/01 07:04:50;;;;;;;2.78;1.13;;;8.90;99.90;;;;;;4970820;28;20490;-74
2021/12/01 07:07:16;;;;;;;2.95;1.30;;;8.90;99.90;;;;;;4946163;28;20059;-74
2021/12/01 07:09:44;;;;;;;3.08;1.17;;;8.90;99.90;;;;;;4948226;29;20043;-74
2021/12/01 07:12:10;;;;;;;2.50;1.08;;;8.80;99.90;;;;;;4970217;28;20755;-73
2021/12/01 07:14:36;;;;;;;2.67;1.27;;;8.80;99.90;;;;;;4962398;28;20142;-73
2021/12/01 07:17:02;;;;;;;3.53;1.38;;;8.80;99.90;;;;;;4944999;29;20165;-74
2021/12/01 07:19:27;;;;;;;2.95;1.23;;;8.80;99.90;;;;;;4967121;28;20134;-73
2021/12/01 07:21:53;;;;;;;2.28;1.00;;;8.80;99.90;;;;;;4964733;28;20453;-73
2021/12/01 07:24:20;;;;;;;2.88;1.13;;;8.80;99.90;;;;;;4945592;29;20041;-73
2021/12/01 07:26:46;;;;;;;2.90;1.23;;;8.80;99.90;;;;;;4938469;29;20403;-73
2021/12/01 07:29:12;;;;;;;2.10;0.95;;;8.80;99.90;;;;;;4946335;29;20073;-72
2021/12/01 07:31:37;;;;;;;2.28;1.02;;;8.80;99.90;;;;;;4942217;29;20513;-72
2021/12/01 07:34:03;;;;;;;2.65;1.10;;;8.80;99.90;;;;;;4973351;28;20058;-73
2021/12/01 07:36:29;;;;;;;4.80;1.40;;;8.80;99.90;;;;;;4962593;28;20039;-73
2021/12/01 07:38:56;;;;;;;3.95;1.38;;;8.80;99.90;;;;;;4951551;29;20126;-72
2021/12/01 07:41:22;;;;;;;4.30;1.20;;;8.80;99.90;;;;;;4940058;29;20137;-73
2021/12/01 07:43:47;;;;;;;2.70;1.20;;;8.80;99.90;;;;;;4941490;28;20822;-73
2021/12/01 07:46:14;;;;;;;3.70;1.67;;;8.80;99.90;;;;;;4939219;29;20048;-73
2021/12/01 07:48:40;;;;;;;4.38;2.05;;;8.80;99.90;;;;;;4961344;28;20422;-73
2021/12/01 07:51:05;;;;;;;3.83;1.90;;;8.80;99.90;;;;;;4960492;28;20040;-73
2021/12/01 07:53:32;;;;;;;4.20;2.20;;;8.80;99.90;;;;;;4965459;28;20098;-72
2021/12/01 07:55:58;;;;;;;3.70;1.90;;;8.80;99.90;;;;;;4964364;28;20039;-73
2021/12/01 07:58:23;;;;;;;4.63;2.13;;;8.90;99.90;;;;;;4938739;28;20094;-72
2021/12/01 08:00:49;;;;;;;4.82;2.45;;;8.80;99.90;;;;;;4946846;28;20126;-72
2021/12/01 08:03:15;;;;;;;4.32;2.15;;;8.80;99.90;;;;;;4941875;28;20483;-73
2021/12/01 08:05:40;;;;;;;4.30;1.92;;;8.90;99.90;;;;;;4944236;29;20043;-73
2021/12/01 08:08:07;;;;;;;4.55;2.28;;;8.80;99.90;;;;;;4945786;29;20114;-73
2021/12/01 08:10:33;;;;;;;4.40;2.50;;;8.90;99.90;;;;;;4937975;29;20043;-73
2021/12/01 08:13:00;;;;;;;4.13;2.17;;;8.90;99.90;;;;;;4937955;29;20414;-73
2021/12/01 08:15:27;;;;;;;5.65;2.40;;;8.90;99.90;;;;;;4949168;29;20126;-73
2021/12/01 08:17:53;;;;;;;8.75;3.35;;;8.90;99.90;;;;;;4937748;29;20138;-73
2021/12/01 08:20:19;;;;;;;9.85;4.18;;;8.90;99.90;;;;;;4945593;29;20590;-73
2021/12/01 08:22:46;;;;;;;8.90;4.07;;;8.90;99.90;;;;;;4945686;28;20039;-72
2021/12/01 08:25:12;;;;;;;7.70;4.15;;;8.90;99.90;;;;;;4963989;28;20051;-72
2021/12/01 08:27:38;;;;;;;7.90;4.10;;;8.90;99.90;;;;;;4938736;29;20043;-72
2021/12/01 08:30:05;;;;;;;6.50;3.80;;;8.90;99.90;;;;;;4947690;29;20110;-72
2021/12/01 08:32:30;;;;;;;8.82;3.47;;;8.90;99.90;;;;;;4937067;28;20043;-72
2021/12/01 08:34:56;;;;;;;9.07;4.20;;;8.90;99.90;;;;;;4959132;28;20042;-72
2021/12/01 08:37:22;;;;;;;6.25;3.40;;;8.90;99.90;;;;;;4959272;28;20094;-72
2021/12/01 08:39:50;;;;;;;7.43;2.97;;;9.00;99.90;;;;;;4966343;28;20055;-72
2021/12/01 08:42:20;;;;;;;6.97;3.20;;;8.90;99.90;;;;;;4969292;28;20069;-73
2021/12/01 08:44:47;;;;;;;5.60;2.10;;;8.90;99.90;;;;;;4967669;28;20051;-72
2021/12/01 08:47:14;;;;;;;9.13;3.05;;;8.90;99.90;;;;;;4944447;28;20442;-72
2021/12/01 08:49:41;;;;;;;7.57;3.10;;;9.00;99.90;;;;;;4944041;28;20137;-73
2021/12/01 08:52:06;;;;;;;8.18;2.30;;;9.00;99.90;;;;;;4947835;28;20055;-73
2021/12/01 08:54:32;;;;;;;7.40;2.10;;;8.90;99.90;;;;;;4955943;28;20078;-72
2021/12/01 08:56:58;;;;;;;4.93;1.65;;;8.90;99.90;;;;;;4956169;28;20070;-72
2021/12/01 08:59:23;;;;;;;12.55;1.90;;;9.00;99.90;;;;;;4970478;28;20035;-72
2021/12/01 09:01:50;;;;;;;9.82;2.35;;;8.90;99.90;;;;;;4954749;28;20134;-72
2021/12/01 09:04:15;;;;;;;11.80;1.90;;;9.00;99.90;;;;;;4958159;28;20039;-71
2021/12/01 09:06:41;;;;;;;14.23;2.03;;;9.00;99.90;;;;;;4956312;28;20451;-72
2021/12/01 09:09:07;;;;;;;8.43;1.75;;;9.00;99.90;;;;;;4953811;28;20050;-72
2021/12/01 09:11:33;;;;;;;10.25;1.45;;;9.00;99.90;;;;;;4943021;29;20576;-72
2021/12/01 09:13:59;;;;;;;11.07;1.02;;;8.90;99.90;;;;;;4935837;29;20047;-72
2021/12/01 09:16:25;;;;;;;9.95;1.83;;;9.00;99.90;;;;;;4954105;28;20486;-72
2021/12/01 09:18:51;;;;;;;8.75;2.63;;;9.00;99.90;;;;;;4983907;28;20074;-72
2021/12/01 09:21:18;;;;;;;9.77;1.20;;;9.00;99.90;;;;;;4954895;28;20043;-72
2021/12/01 09:23:45;;;;;;;6.70;1.40;;;9.00;99.90;;;;;;4954059;28;20061;-73
2021/12/01 09:26:10;;;;;;;11.93;1.42;;;9.00;99.90;;;;;;4953301;29;20055;-72
2021/12/01 09:28:36;;;;;;;8.63;1.35;;;9.00;99.90;;;;;;4937501;28;20051;-72
2021/12/01 09:31:02;;;;;;;7.22;1.48;;;9.00;99.90;;;;;;4951860;28;20057;-72
2021/12/01 09:33:29;;;;;;;9.25;1.27;;;9.00;99.90;;;;;;4937839;28;20082;-71
2021/12/01 09:35:55;;;;;;;12.48;1.77;;;8.90;99.90;;;;;;4936641;28;20498;-72
2021/12/01 09:38:22;;;;;;;10.10;1.30;;;9.00;99.90;;;;;;4953058;28;20475;-72
2021/12/01 09:40:51;;;;;;;10.38;1.60;;;8.90;99.90;;;;;;4968440;28;20054;-72
2021/12/01 09:43:19;;;;;;;7.72;1.20;;;8.90;99.90;;;;;;4945631;28;20047;-72
2021/12/01 09:45:46;;;;;;;7.72;0.77;;;8.90;99.90;;;;;;4955477;28;20487;-73
2021/12/01 09:48:11;;;;;;;9.25;1.42;;;8.80;99.90;;;;;;4954410;28;20043;-73
2021/12/01 09:50:37;;;;;;;6.35;0.82;;;8.80;99.90;;;;;;4972964;28;20450;-73
2021/12/01 09:53:03;;;;;;;9.27;0.95;;;8.80;99.90;;;;;;4941671;29;20051;-72
2021/12/01 09:55:29;;;;;;;8.50;1.45;;;8.80;99.90;;;;;;4955245;28;20101;-73
2021/12/01 09:58:08;;;;;;;13.70;1.48;;;8.80;99.90;;;;;;4943641;28;20042;-75
2021/12/01 10:00:35;;;;;;;6.72;0.90;;;8.80;99.90;;;;;;4970196;28;20054;-74
2021/12/01 10:03:01;;;;;;;3.17;0.75;;;8.70;99.90;;;;;;4970700;28;20588;-74
2021/12/01 10:06:11;;;;;;;7.07;1.10;;;8.80;99.90;;;;;;4953988;28;20054;-73
2021/12/01 10:08:46;;;;;;;6.82;0.90;;;8.80;99.90;;;;;;4930064;29;20051;-74
2021/12/01 10:11:15;;;;;;;11.68;1.33;;;8.80;99.90;;;;;;4965973;28;20051;-74
2021/12/01 10:13:43;;;;;;;8.07;1.27;;;8.80;99.90;;;;;;4963099;28;20415;-74
2021/12/01 10:16:12;;;;;;;11.15;1.10;;;8.80;99.90;;;;;;4953145;28;20051;-75
2021/12/01 10:18:52;;;;;;;10.35;1.23;;;8.80;99.90;;;;;;4954635;28;20491;-73
2021/12/01 10:21:36;;;;;;;16.05;1.75;;;8.80;99.90;;;;;;4949547;29;20125;-74
2021/12/01 10:24:11;;;;;;;11.03;1.57;;;8.80;99.90;;;;;;4944214;29;20503;-75
2021/12/01 10:26:41;;;;;;;12.10;1.02;;;8.80;99.90;;;;;;4954172;28;20043;-74
2021/12/01 10:29:16;;;;;;;9.50;1.15;;;8.80;99.90;;;;;;4952871;28;20087;-74
2021/12/01 10:31:53;;;;;;;13.23;1.50;;;8.80;99.90;;;;;;4947643;29;20078;-74
2021/12/01 10:34:32;;;;;;;14.27;1.42;;;8.90;99.90;;;;;;4945343;28;20086;-74
2021/12/01 10:37:18;;;;;;;11.82;1.50;;;8.90;99.90;;;;;;4947123;28;20082;-73
2021/12/01 10:39:49;;;;;;;10.65;1.58;;;8.80;99.90;;;;;;4938215;28;20059;-74
2021/12/01 10:42:17;;;;;;;12.13;1.20;;;8.80;99.90;;;;;;4947861;28;20368;-73
2021/12/01 10:45:01;;;;;;;12.77;1.52;;;8.90;99.90;;;;;;4950926;28;20526;-74
2021/12/01 10:47:40;;;;;;;13.48;1.45;;;8.90;99.90;;;;;;4953318;28;20074;-74
2021/12/01 10:50:11;;;;;;;16.70;1.70;;;8.90;99.90;;;;;;4961148;28;20050;-74
2021/12/01 10:52:41;;;;;;;10.65;1.13;;;8.90;99.90;;;;;;4947324;28;20051;-72
2021/12/01 10:55:16;;;;;;;13.50;1.55;;;8.80;99.90;;;;;;4950812;28;20057;-72
2021/12/01 10:57:45;;;;;;;8.43;1.13;;;8.90;99.90;;;;;;4950024;28;20098;-72
2021/12/01 11:00:14;;;;;;;18.55;1.83;;;8.80;99.90;;;;;;4956655;28;20062;-72
2021/12/01 11:02:40;;;;;;;10.90;1.50;;;8.80;99.90;;;;;;4945666;28;20039;-73
2021/12/01 11:05:07;;;;;;;13.68;1.88;;;8.80;99.90;;;;;;4949742;28;20050;-72
2021/12/01 11:07:34;;;;;;;14.40;1.50;;;8.70;99.90;;;;;;4939835;28;20039;-72
2021/12/01 11:10:12;;;;;;;12.43;1.75;;;8.70;99.90;;;;;;4946980;28;20043;-72
2021/12/01 11:12:38;;;;;;;18.02;1.60;;;8.60;99.90;;;;;;4944249;29;20114;-72
2021/12/01 11:15:26;;;;;;;8.75;1.10;;;8.60;99.90;;;;;;4937861;28;20056;-72
2021/12/01 11:17:54;;;;;;;9.75;1.80;;;8.60;99.90;;;;;;4938497;28;20050;-72
2021/12/01 11:20:39;;;;;;;10.95;1.20;;;8.60;99.90;;;;;;4933927;29;20047;-71
2021/12/01 11:23:12;;;;;;;6.45;0.90;;;8.60;99.90;;;;;;4942303;28;20059;-71
2021/12/01 11:25:38;;;;;;;11.45;2.22;;;8.60;99.90;;;;;;4934153;29;20039;-72
2021/12/01 11:28:08;;;;;;;9.93;1.30;;;8.60;99.90;;;;;;4931246;29;20048;-72
2021/12/01 11:30:36;;;;;;;9.98;1.27;;;8.70;99.90;;;;;;4937684;29;20077;-71
2021/12/01 11:33:02;;;;;;;7.35;1.15;;;8.90;99.90;;;;;;4932079;29;20107;-71
2021/12/01 11:35:28;;;;;;;8.65;1.65;;;8.80;99.90;;;;;;4933069;29;20407;-71
2021/12/01 11:38:00;;;;;;;9.48;2.17;;;8.80;99.90;;;;;;4941951;29;20055;-71
2021/12/01 11:40:27;;;;;;;14.55;1.95;;;8.80;99.90;;;;;;4930355;29;20495;-72
2021/12/01 11:42:54;;;;;;;12.48;2.63;;;8.70;99.90;;;;;;4931486;29;20143;-72
2021/12/01 11:45:19;;;;;;;14.95;2.20;;;8.80;99.90;;;;;;4934834;29;20047;-71
2021/12/01 11:47:47;;;;;;;14.40;2.33;;;8.90;99.90;;;;;;4945972;29;20043;-71
2021/12/01 11:50:26;;;;;;;15.43;1.70;;;8.90;99.90;;;;;;4936598;29;20056;-71
2021/12/01 11:53:16;;;;;;;19.77;3.15;;;8.90;99.90;;;;;;4941887;29;20043;-70
2021/12/01 11:55:54;;;;;;;19.52;2.60;;;8.90;99.90;;;;;;4947550;28;20055;-70
2021/12/01 11:58:57;;;;;;;15.95;2.10;;;8.90;99.90;;;;;;4934512;29;20130;-72
2021/12/01 12:01:23;;;;;;;15.02;1.85;;;8.90;99.90;;;;;;4933600;29;20044;-72
2021/12/01 12:03:54;;;;;;;17.70;3.08;;;8.90;99.90;;;;;;4935337;29;20047;-73
2021/12/01 12:06:26;;;;;;;18.85;3.03;;;8.80;99.90;;;;;;4933850;28;20506;-72
2021/12/01 12:09:03;;;;;;;17.67;2.85;;;8.70;99.90;;;;;;4936790;29;20043;-73
2021/12/01 12:11:44;;;;;;;16.67;2.58;;;8.60;99.90;;;;;;4932198;29;20083;-74
2021/12/01 12:14:11;;;;;;;19.70;2.97;;;8.50;99.90;;;;;;4947888;29;20509;-71
2021/12/01 12:16:38;;;;;;;31.88;4.00;;;8.50;99.90;;;;;;4935653;29;20043;-71
2021/12/01 12:19:05;;;;;;;20.45;2.55;;;8.40;99.90;;;;;;4944940;29;20561;-73
2021/12/01 12:24:10;;;;;;;11.40;2.30;;;8.30;99.90;;;;;;4944331;29;20047;-73
2021/12/01 12:26:48;;;;;;;12.05;2.53;;;8.30;99.90;;;;;;4932686;29;20048;-71
2021/12/01 12:29:20;;;;;;;16.83;2.90;;;8.30;99.90;;;;;;4940462;29;20097;-71
2021/12/01 12:31:48;;;;;;;20.45;2.83;;;8.20;99.90;;;;;;4939605;29;20106;-71
2021/12/01 12:34:22;;;;;;;16.98;3.05;;;8.20;99.90;;;;;;4945764;29;20113;-71
2021/12/01 12:37:00;;;;;;;12.60;2.30;;;8.20;99.90;;;;;;4937828;29;20044;-72
2021/12/01 12:39:30;;;;;;;16.30;2.65;;;8.20;99.90;;;;;;4945129;29;20051;-72
2021/12/01 12:41:55;;;;;;;16.00;2.25;;;8.20;99.90;;;;;;4933671;29;20075;-72
2021/12/01 12:44:32;;;;;;;15.80;2.45;;;8.20;99.90;;;;;;4941769;29;20074;-72
2021/12/01 12:47:10;;;;;;;15.93;2.00;;;8.20;99.90;;;;;;4940396;28;20054;-72
2021/12/01 12:50:09;;;;;;;21.05;2.20;;;8.20;99.90;;;;;;4942943;29;20479;-71
2021/12/01 12:52:40;;;;;;;17.70;2.30;;;8.30;99.90;;;;;;4954660;28;20055;-72
2021/12/01 12:55:29;;;;;;;17.10;2.97;;;8.30;99.90;;;;;;4940336;28;20056;-71
2021/12/01 12:58:06;;;;;;;16.38;1.83;;;8.30;99.90;;;;;;4922664;29;20062;-72
2021/12/01 13:00:56;;;;;;;15.68;1.88;;;8.30;99.90;;;;;;4934860;29;20078;-72
2021/12/01 13:03:24;;;;;;;10.00;1.35;;;8.30;99.90;;;;;;4935611;29;20238;-72
2021/12/01 13:05:54;;;;;;;15.05;1.75;;;8.30;99.90;;;;;;4939021;29;20043;-71